Aérodrome :
LOGIN :

S'inscrire | Disclaimer

   EN    FR    IT 

 










Légende :    VFR   VFR Marginal   IFR   IFR Intensif   IFR Très Intensif
Visi : 
Plafond : 
>= 8 km
>= 3000ft
5 à 8 km
1000 à 3000 ft
1500m à 5 km
500 à 1000 ft
800 à 1500m
200 à 500 ft
< 800m
< 200 ft
Symboles :   Orages  Brouillard  Fortes neiges  Fortes précipitations  Vent > 20 kt
SIGMETs :   Divers  Orages  Givrage  Turbulence  Onde Orograph.  Cendres Volcan.






- Altitude de l'aérodrome : 1900 ft
- Code IATA : FEZ


GMFF - Fez Saiss

DERNIER METAR :
  • 291430Z VRB09KT CAVOK 34/10 Q1012 NOSIG

METARs EXPIRÉS :
  • 291400Z 35008KT 320V040 CAVOK 33/14 Q1012 NOSIG
  • 291330Z 30007KT 190V340 CAVOK 33/12 Q1013 NOSIG
  • 291300Z VRB08KT CAVOK 33/13 Q1013 NOSIG
  • 291230Z 01007KT 280V080 CAVOK 32/14 Q1013 NOSIG
  • 291200Z 02007KT 310V090 CAVOK 30/14 Q1014 NOSIG

TAF TAF GMFF
Valide du 29 à 12h jusqu'au 30 à 18h UTC


291100Z 2912/3018 34014KT 9999 FEW030 BKN100
BECMG 2918/2920 06004KT CAVOK



MET'MAP, la Météo Aéronautique d'un coup d'oeil ! - Copyright ORBIFLY Décembre 2007 - Disclaimer

ORBIFLY MET'MAP TEAM :

Programmation & Développement : Alexandra Zaïnal
Sur une idée originale de : Baudouin d'Aumeries
Assistance à la programmation : Marc-Olivier Méhu
Soutien technique & logistique : Manuel Goepfert

Contact : metmap@orbifly.com




SOURCES & CREDITS :

   NOAA